Time;durP1;ratioP1;P1;durP2;ratioP2;P2;SDS_P1;SDS_P2;PMS_P1;PMS_P2;Temp;Humidity;BMP_temperature;BMP_pressure;BME280_temperature;BME280_humidity;BME280_pressure;Samples;Min_cycle;Max_cycle;Signal;HPM_P1;HPM_P2
2022/07/17 00:01:50;;;;;;;3.78;1.58;;;18.70;80.20;;;;;;5093329;28;20103;-70
2022/07/17 00:04:18;;;;;;;5.65;1.30;;;18.60;80.20;;;;;;5075984;23;20055;-71
2022/07/17 00:06:44;;;;;;;3.17;1.00;;;18.50;80.60;;;;;;5052505;28;20057;-71
2022/07/17 00:09:10;;;;;;;4.63;1.30;;;18.50;81.00;;;;;;5052320;28;20051;-71
2022/07/17 00:11:36;;;;;;;7.38;1.70;;;18.40;81.30;;;;;;5052993;28;20388;-71
2022/07/17 00:14:02;;;;;;;4.93;1.38;;;18.40;81.50;;;;;;5052611;28;20109;-71
2022/07/17 00:16:28;;;;;;;4.38;1.38;;;18.40;81.70;;;;;;5052485;28;20031;-71
2022/07/17 00:18:54;;;;;;;4.22;1.20;;;18.40;81.70;;;;;;5050313;28;20056;-72
2022/07/17 00:21:20;;;;;;;4.90;1.70;;;18.40;81.70;;;;;;5052266;28;20060;-71
2022/07/17 00:23:46;;;;;;;14.68;1.70;;;18.40;81.60;;;;;;5052088;28;20401;-72
2022/07/17 00:26:12;;;;;;;6.38;1.40;;;18.30;81.70;;;;;;5052006;28;20381;-71
2022/07/17 00:28:38;;;;;;;3.75;1.40;;;18.30;81.70;;;;;;5051946;28;20029;-71
2022/07/17 00:31:04;;;;;;;3.53;1.20;;;18.20;81.90;;;;;;5052181;28;20527;-71
2022/07/17 00:33:30;;;;;;;5.43;1.40;;;18.20;82.20;;;;;;5052377;28;20032;-72
2022/07/17 00:35:56;;;;;;;4.50;1.70;;;18.20;82.30;;;;;;5052133;28;20028;-71
2022/07/17 00:38:22;;;;;;;4.85;1.27;;;18.10;82.60;;;;;;5052053;28;20033;-71
2022/07/17 00:40:48;;;;;;;5.90;1.55;;;18.10;82.80;;;;;;5051860;28;20119;-71
2022/07/17 00:43:14;;;;;;;4.28;1.40;;;18.10;83.00;;;;;;5052201;28;20037;-71
2022/07/17 00:45:40;;;;;;;7.65;1.90;;;18.00;83.30;;;;;;5051873;28;20032;-71
2022/07/17 00:48:10;;;;;;;4.38;1.52;;;18.00;83.50;;;;;;5051720;28;20040;-71
2022/07/17 00:50:40;;;;;;;6.57;1.58;;;17.90;83.80;;;;;;5050523;28;20037;-71
2022/07/17 00:53:07;;;;;;;2.83;1.30;;;17.90;84.10;;;;;;5051690;28;20112;-71
2022/07/17 00:55:33;;;;;;;5.07;1.60;;;17.80;84.50;;;;;;5051934;28;20028;-71
2022/07/17 00:58:02;;;;;;;4.90;1.50;;;17.80;84.60;;;;;;5051811;28;20025;-70
2022/07/17 01:00:28;;;;;;;6.78;1.70;;;17.70;84.70;;;;;;5051643;28;20482;-71
2022/07/17 01:02:55;;;;;;;5.53;1.73;;;17.70;84.90;;;;;;5051888;28;20036;-71
2022/07/17 01:05:23;;;;;;;5.97;1.63;;;17.70;85.20;;;;;;5051600;28;20432;-71
2022/07/17 01:07:50;;;;;;;6.38;1.48;;;17.60;85.40;;;;;;5051401;28;20474;-71
2022/07/17 01:10:18;;;;;;;6.10;1.50;;;17.50;85.60;;;;;;5051162;28;20039;-70
2022/07/17 01:12:48;;;;;;;5.15;1.60;;;17.50;85.80;;;;;;5051550;28;20069;-71
2022/07/17 01:15:14;;;;;;;5.43;1.50;;;17.50;86.10;;;;;;5051631;28;20029;-70
2022/07/17 01:17:41;;;;;;;4.32;1.73;;;17.40;86.20;;;;;;5051610;28;20470;-72
2022/07/17 01:20:09;;;;;;;5.10;1.60;;;17.30;86.30;;;;;;5050826;28;20112;-71
2022/07/17 01:22:46;;;;;;;5.82;1.50;;;17.30;86.60;;;;;;5051391;28;20095;-71
2022/07/17 01:25:13;;;;;;;7.03;1.73;;;17.40;86.70;;;;;;5051124;28;20094;-71
2022/07/17 01:27:40;;;;;;;5.97;1.65;;;17.30;86.60;;;;;;5050964;28;20071;-71
2022/07/17 01:30:07;;;;;;;4.00;1.65;;;17.30;86.40;;;;;;5050677;28;20397;-72
2022/07/17 01:32:35;;;;;;;4.50;1.60;;;17.40;86.40;;;;;;5049565;28;20410;-72
2022/07/17 01:35:02;;;;;;;4.93;1.40;;;17.40;86.30;;;;;;5051309;28;20441;-72
2022/07/17 01:37:28;;;;;;;6.80;1.73;;;17.40;86.30;;;;;;5050851;28;20033;-72
2022/07/17 01:39:55;;;;;;;3.58;1.40;;;17.40;86.10;;;;;;5050759;28;20090;-72
2022/07/17 01:42:23;;;;;;;5.82;1.80;;;17.40;86.10;;;;;;5050874;28;20207;-72
2022/07/17 01:44:50;;;;;;;5.28;1.85;;;17.40;86.30;;;;;;5051397;28;20025;-71
2022/07/17 01:47:17;;;;;;;5.25;1.38;;;17.40;86.20;;;;;;5050652;28;20029;-71
2022/07/17 01:49:55;;;;;;;6.80;1.55;;;17.40;86.30;;;;;;5050600;28;20405;-72
2022/07/17 01:52:23;;;;;;;6.23;1.70;;;17.40;86.20;;;;;;5050739;28;20481;-72
2022/07/17 01:54:49;;;;;;;6.63;1.80;;;17.40;86.20;;;;;;5050887;28;20033;-72
2022/07/17 01:57:16;;;;;;;6.43;1.80;;;17.30;86.30;;;;;;5050511;28;20473;-72
2022/07/17 01:59:42;;;;;;;6.40;1.70;;;17.40;86.40;;;;;;5050472;28;20182;-71
2022/07/17 02:02:09;;;;;;;4.45;1.70;;;17.40;86.30;;;;;;5050830;28;20318;-72
2022/07/17 02:04:36;;;;;;;7.10;1.67;;;17.40;86.30;;;;;;5050628;28;20037;-72
2022/07/17 02:07:03;;;;;;;6.70;1.63;;;17.30;86.60;;;;;;5050545;28;20029;-71
2022/07/17 02:09:29;;;;;;;6.43;1.92;;;17.30;86.60;;;;;;5050376;28;20048;-72
2022/07/17 02:11:55;;;;;;;5.50;1.70;;;17.20;86.70;;;;;;5050989;28;20033;-72
2022/07/17 02:14:21;;;;;;;4.88;1.80;;;17.30;86.90;;;;;;5050494;28;20475;-72
2022/07/17 02:16:48;;;;;;;7.38;1.73;;;17.20;86.80;;;;;;5049282;28;20092;-72
2022/07/17 02:19:14;;;;;;;4.68;1.60;;;17.20;86.90;;;;;;5050113;28;20025;-72
2022/07/17 02:21:40;;;;;;;5.97;1.52;;;17.20;86.90;;;;;;5050558;28;20518;-72
2022/07/17 02:24:06;;;;;;;6.07;1.95;;;17.20;87.00;;;;;;5050446;28;20060;-71
2022/07/17 02:26:32;;;;;;;4.00;1.38;;;17.10;87.10;;;;;;5050316;28;20072;-72
2022/07/17 02:28:58;;;;;;;6.63;1.42;;;17.10;87.30;;;;;;5050137;28;20033;-72
2022/07/17 02:31:24;;;;;;;5.70;1.95;;;17.10;87.40;;;;;;5050203;28;20091;-72
2022/07/17 02:33:50;;;;;;;6.95;1.40;;;17.10;87.40;;;;;;5050284;28;20436;-72
2022/07/17 02:36:16;;;;;;;5.85;1.83;;;17.10;87.60;;;;;;5050293;28;20409;-71
2022/07/17 02:38:42;;;;;;;7.85;2.00;;;17.00;87.60;;;;;;5049999;28;20124;-71
2022/07/17 02:41:08;;;;;;;7.93;1.85;;;17.00;87.80;;;;;;5051330;28;20037;-72
2022/07/17 02:43:34;;;;;;;6.03;1.38;;;17.00;87.90;;;;;;5053968;28;20242;-71
2022/07/17 02:46:01;;;;;;;6.20;1.48;;;17.00;87.80;;;;;;5053756;28;20044;-71
2022/07/17 02:48:27;;;;;;;4.13;1.48;;;16.90;88.00;;;;;;5053683;28;20394;-72
2022/07/17 02:50:53;;;;;;;5.22;1.67;;;16.90;88.10;;;;;;5052245;28;20040;-72
2022/07/17 02:53:19;;;;;;;5.35;1.48;;;16.90;88.30;;;;;;5053672;28;20025;-72
2022/07/17 02:55:45;;;;;;;5.65;1.85;;;16.90;88.60;;;;;;5053545;28;20029;-72
2022/07/17 02:58:11;;;;;;;5.78;1.55;;;16.90;88.50;;;;;;5053527;28;20025;-71
2022/07/17 03:00:37;;;;;;;5.35;1.30;;;16.90;88.60;;;;;;5053551;28;20478;-71
2022/07/17 03:03:03;;;;;;;8.30;1.77;;;16.90;88.70;;;;;;5053533;28;20112;-72
2022/07/17 03:05:29;;;;;;;7.57;2.00;;;16.90;88.60;;;;;;5053596;28;20025;-72
2022/07/17 03:07:55;;;;;;;6.53;1.65;;;16.90;88.80;;;;;;5053323;28;20159;-72
2022/07/17 03:10:21;;;;;;;6.25;1.85;;;16.90;88.80;;;;;;5052912;28;20543;-72
2022/07/17 03:12:47;;;;;;;8.13;1.73;;;16.80;88.80;;;;;;5053228;28;20124;-72
2022/07/17 03:15:13;;;;;;;6.00;1.88;;;16.80;88.70;;;;;;5053271;28;20025;-72
2022/07/17 03:17:39;;;;;;;5.93;1.90;;;16.90;88.80;;;;;;5053166;28;20067;-72
2022/07/17 03:20:06;;;;;;;6.20;2.05;;;16.80;88.60;;;;;;5051699;28;20044;-72
2022/07/17 03:22:32;;;;;;;5.47;1.75;;;16.80;88.90;;;;;;5051713;28;20059;-72
2022/07/17 03:24:58;;;;;;;9.27;2.00;;;16.70;89.10;;;;;;5053103;28;20086;-72
2022/07/17 03:27:24;;;;;;;6.57;1.90;;;16.70;89.20;;;;;;5052933;28;20719;-72
2022/07/17 03:29:50;;;;;;;6.10;1.60;;;16.60;89.30;;;;;;5052697;28;20424;-72
2022/07/17 03:32:16;;;;;;;4.47;1.88;;;16.60;89.50;;;;;;5052756;28;20033;-71
2022/07/17 03:34:42;;;;;;;6.68;1.55;;;16.70;89.70;;;;;;5052947;28;20039;-71
2022/07/17 03:37:08;;;;;;;5.57;1.75;;;16.60;89.80;;;;;;5053206;28;20466;-72
2022/07/17 03:39:34;;;;;;;5.57;1.45;;;16.60;89.70;;;;;;5052893;28;20025;-72
2022/07/17 03:42:00;;;;;;;5.35;1.88;;;16.70;89.70;;;;;;5052957;28;20036;-72
2022/07/17 03:44:26;;;;;;;5.63;1.92;;;16.70;89.80;;;;;;5052787;28;20064;-71
2022/07/17 03:46:52;;;;;;;6.22;1.90;;;16.70;89.80;;;;;;5052517;28;20044;-72
2022/07/17 03:49:18;;;;;;;5.45;1.85;;;16.60;89.80;;;;;;5052524;28;20029;-72
2022/07/17 03:51:44;;;;;;;6.05;2.03;;;16.60;89.80;;;;;;5052413;28;20044;-72
2022/07/17 03:54:10;;;;;;;5.57;2.08;;;16.70;89.90;;;;;;5052431;28;20021;-72
2022/07/17 03:56:36;;;;;;;7.35;1.90;;;16.70;89.80;;;;;;5052408;28;20381;-72
2022/07/17 03:59:02;;;;;;;5.47;1.60;;;16.60;89.80;;;;;;5052282;28;20036;-71
2022/07/17 04:01:28;;;;;;;8.23;1.90;;;16.70;90.00;;;;;;5052337;28;20417;-72
2022/07/17 04:03:54;;;;;;;6.53;1.88;;;16.70;90.00;;;;;;5051119;28;20353;-72
2022/07/17 04:06:20;;;;;;;8.60;2.13;;;16.60;90.00;;;;;;5052144;28;20033;-72
2022/07/17 04:08:46;;;;;;;4.32;1.65;;;16.60;90.00;;;;;;5051951;28;20029;-72
2022/07/17 04:11:12;;;;;;;6.28;1.75;;;16.60;90.10;;;;;;5052166;28;20029;-72
2022/07/17 04:13:38;;;;;;;6.30;1.80;;;16.60;90.10;;;;;;5052190;28;20036;-72
2022/07/17 04:16:05;;;;;;;4.75;1.70;;;16.60;90.20;;;;;;5050764;28;20086;-72
2022/07/17 04:18:32;;;;;;;5.95;2.20;;;16.60;90.30;;;;;;5050784;28;20029;-71
2022/07/17 04:21:01;;;;;;;5.90;1.80;;;16.60;90.20;;;;;;5052225;28;20095;-72
2022/07/17 04:23:27;;;;;;;5.97;2.20;;;16.60;90.20;;;;;;5052089;28;20034;-72
2022/07/17 04:25:54;;;;;;;6.07;2.00;;;16.50;90.30;;;;;;5051817;28;20040;-71
2022/07/17 04:28:20;;;;;;;7.05;1.73;;;16.50;90.40;;;;;;5051752;28;20044;-71
2022/07/17 04:30:46;;;;;;;7.68;2.22;;;16.50;90.30;;;;;;5051557;28;20492;-72
2022/07/17 04:33:13;;;;;;;4.07;1.70;;;16.60;90.40;;;;;;5050690;28;20029;-71
2022/07/17 04:35:39;;;;;;;4.32;2.00;;;16.60;90.50;;;;;;5051761;28;20021;-72
2022/07/17 04:38:07;;;;;;;4.57;2.05;;;16.50;90.50;;;;;;5051647;28;20033;-72
2022/07/17 04:40:33;;;;;;;4.85;1.83;;;16.50;90.40;;;;;;5051529;28;20074;-72
2022/07/17 04:42:59;;;;;;;6.53;2.10;;;16.60;90.50;;;;;;5051743;28;20103;-72
2022/07/17 04:45:25;;;;;;;6.95;1.90;;;16.60;90.50;;;;;;5051976;28;20052;-72
2022/07/17 04:47:51;;;;;;;6.38;1.95;;;16.60;90.60;;;;;;5051618;28;20021;-72
2022/07/17 04:50:17;;;;;;;5.97;1.95;;;16.70;90.60;;;;;;5051351;28;20029;-74
2022/07/17 04:52:43;;;;;;;4.32;1.40;;;16.70;90.50;;;;;;5051371;28;20119;-72
2022/07/17 04:55:09;;;;;;;6.15;1.30;;;16.80;90.40;;;;;;5051709;28;20464;-71
2022/07/17 04:57:35;;;;;;;6.53;1.60;;;16.80;90.50;;;;;;5051546;28;20029;-72
2022/07/17 05:00:06;;;;;;;5.60;1.70;;;16.80;90.40;;;;;;5051200;28;20056;-71
2022/07/17 05:02:32;;;;;;;8.20;2.20;;;16.80;90.60;;;;;;5050005;28;20041;-73
2022/07/17 05:04:58;;;;;;;4.32;1.88;;;16.80;90.10;;;;;;5051009;28;20103;-72
2022/07/17 05:07:24;;;;;;;5.53;1.92;;;16.80;90.30;;;;;;5051202;28;20486;-72
2022/07/17 05:09:50;;;;;;;6.88;2.13;;;16.80;90.40;;;;;;5051302;28;20048;-72
2022/07/17 05:12:16;;;;;;;5.85;2.20;;;16.80;90.40;;;;;;5051304;28;20037;-72
2022/07/17 05:14:42;;;;;;;4.63;1.60;;;16.80;90.40;;;;;;5051175;28;20083;-72
2022/07/17 05:17:08;;;;;;;5.88;2.03;;;16.80;90.40;;;;;;5051202;28;20547;-72
2022/07/17 05:19:35;;;;;;;5.22;1.98;;;16.90;90.30;;;;;;5050732;28;20017;-71
2022/07/17 05:22:02;;;;;;;8.70;3.60;;;17.00;90.20;;;;;;5051064;28;20478;-72
2022/07/17 05:24:28;;;;;;;7.95;2.20;;;17.00;89.60;;;;;;5051173;28;20563;-72
2022/07/17 05:26:54;;;;;;;5.57;2.20;;;17.00;89.40;;;;;;5050875;28;20501;-72
2022/07/17 05:29:20;;;;;;;5.60;1.90;;;17.00;89.40;;;;;;5050904;28;20040;-72
2022/07/17 05:31:46;;;;;;;4.82;1.95;;;17.10;88.90;;;;;;5051211;28;20029;-72
2022/07/17 05:34:12;;;;;;;5.90;1.65;;;17.20;89.10;;;;;;5050773;28;20033;-72
2022/07/17 05:36:38;;;;;;;8.32;1.90;;;17.10;89.30;;;;;;5050678;28;20029;-72
2022/07/17 05:39:04;;;;;;;6.10;1.98;;;17.20;89.50;;;;;;5050671;28;20040;-72
2022/07/17 05:41:30;;;;;;;6.00;2.10;;;17.30;89.40;;;;;;5050911;28;20557;-72
2022/07/17 05:43:56;;;;;;;7.05;2.10;;;17.30;88.50;;;;;;5050810;28;20029;-72
2022/07/17 05:46:22;;;;;;;7.07;2.20;;;17.30;88.70;;;;;;5050819;28;20512;-72
2022/07/17 05:48:48;;;;;;;5.85;2.17;;;17.30;88.70;;;;;;5050600;28;20033;-71
2022/07/17 05:51:14;;;;;;;4.55;1.95;;;17.40;89.00;;;;;;5050802;28;20473;-71
2022/07/17 05:53:40;;;;;;;5.93;1.88;;;17.40;89.00;;;;;;5049487;28;20060;-72
2022/07/17 05:56:06;;;;;;;5.40;1.90;;;17.40;89.20;;;;;;5050639;28;20025;-72
2022/07/17 05:58:32;;;;;;;4.85;1.88;;;17.40;89.20;;;;;;5050405;28;20037;-71
2022/07/17 06:00:58;;;;;;;7.93;1.80;;;17.50;89.00;;;;;;5050649;28;20075;-72
2022/07/17 06:03:24;;;;;;;5.97;1.75;;;17.50;89.40;;;;;;5068913;22;20055;-70
2022/07/17 06:05:50;;;;;;;6.90;1.70;;;17.60;89.60;;;;;;5070749;28;20031;-70
2022/07/17 06:08:16;;;;;;;7.93;1.83;;;17.60;89.00;;;;;;5070901;28;20017;-70
2022/07/17 06:10:42;;;;;;;9.80;2.00;;;17.60;88.90;;;;;;5070773;28;20024;-70
2022/07/17 06:13:08;;;;;;;7.75;1.80;;;17.70;88.90;;;;;;5070956;28;20040;-70
2022/07/17 06:15:34;;;;;;;8.90;2.10;;;17.70;88.90;;;;;;5071800;28;20029;-70
2022/07/17 06:18:04;;;;;;;4.68;2.00;;;17.80;88.50;;;;;;5040464;28;20024;-71
2022/07/17 06:20:30;;;;;;;6.10;1.80;;;17.70;88.50;;;;;;5075420;28;20469;-70
2022/07/17 06:22:57;;;;;;;4.72;1.73;;;17.80;88.20;;;;;;5075119;28;20028;-70
2022/07/17 06:25:23;;;;;;;7.40;1.73;;;17.90;88.40;;;;;;5074473;28;20025;-70
2022/07/17 06:27:49;;;;;;;4.93;1.73;;;17.90;88.20;;;;;;5074389;28;20032;-70
2022/07/17 06:30:16;;;;;;;5.80;1.83;;;17.90;87.80;;;;;;5073849;28;20033;-70
2022/07/17 06:32:42;;;;;;;5.00;1.70;;;18.00;87.90;;;;;;5074120;28;20037;-70
2022/07/17 06:35:10;;;;;;;3.83;1.58;;;18.00;87.60;;;;;;5056327;28;20107;-70
2022/07/17 06:37:36;;;;;;;6.28;1.70;;;18.00;86.30;;;;;;5073864;28;20036;-70
2022/07/17 06:40:03;;;;;;;4.90;1.60;;;18.00;86.30;;;;;;5074130;28;20074;-70
2022/07/17 06:42:29;;;;;;;4.78;1.35;;;18.10;86.40;;;;;;5074561;28;20031;-70
2022/07/17 06:44:55;;;;;;;5.68;1.55;;;18.10;86.40;;;;;;5055993;28;20149;-70
2022/07/17 06:47:21;;;;;;;3.20;1.35;;;18.10;86.60;;;;;;5074101;28;20029;-70
2022/07/17 06:49:47;;;;;;;5.65;1.45;;;18.20;86.70;;;;;;5073611;28;20037;-70
2022/07/17 06:52:13;;;;;;;4.88;1.50;;;18.20;86.70;;;;;;5055891;28;20032;-70
2022/07/17 06:54:39;;;;;;;7.47;1.67;;;18.20;86.70;;;;;;5073700;28;20031;-70
2022/07/17 06:57:05;;;;;;;5.20;1.48;;;18.20;86.00;;;;;;5073647;28;20520;-70
2022/07/17 06:59:31;;;;;;;3.38;1.30;;;18.30;85.60;;;;;;5073487;28;20491;-70
2022/07/17 07:01:56;;;;;;;5.97;1.75;;;18.30;85.50;;;;;;5073691;28;20099;-70
2022/07/17 07:04:22;;;;;;;5.55;1.55;;;18.30;85.50;;;;;;5073551;28;20488;-70
2022/07/17 07:06:48;;;;;;;5.47;1.75;;;18.40;85.60;;;;;;5073564;28;20033;-71
2022/07/17 07:09:14;;;;;;;5.50;1.42;;;18.40;85.00;;;;;;5073498;28;20032;-70
2022/07/17 07:11:40;;;;;;;7.07;2.10;;;18.50;84.40;;;;;;5073423;28;20086;-70
2022/07/17 07:14:07;;;;;;;5.40;1.75;;;18.50;84.20;;;;;;5073344;28;20028;-70
2022/07/17 07:16:34;;;;;;;5.00;1.60;;;18.50;84.00;;;;;;5055250;28;20060;-70
2022/07/17 07:19:00;;;;;;;4.80;1.50;;;18.60;84.20;;;;;;5073091;28;20032;-70
2022/07/17 07:21:26;;;;;;;4.90;1.52;;;18.60;84.60;;;;;;5073309;28;20425;-70
2022/07/17 07:23:53;;;;;;;5.70;1.90;;;18.60;84.40;;;;;;5073218;28;20028;-70
2022/07/17 07:26:19;;;;;;;5.03;1.45;;;18.60;84.20;;;;;;5072769;28;20549;-70
2022/07/17 07:28:45;;;;;;;7.47;1.75;;;18.70;83.70;;;;;;5055172;28;20132;-70
2022/07/17 07:31:11;;;;;;;5.68;1.40;;;18.70;83.30;;;;;;5073069;28;20040;-70
2022/07/17 07:33:38;;;;;;;5.30;1.40;;;18.80;82.60;;;;;;5072934;28;20477;-70
2022/07/17 07:36:04;;;;;;;3.60;1.38;;;18.80;82.40;;;;;;5072831;28;20396;-70
2022/07/17 07:38:30;;;;;;;7.35;1.67;;;18.80;82.50;;;;;;5072716;28;20040;-70
2022/07/17 07:40:56;;;;;;;4.35;1.40;;;18.90;81.40;;;;;;5072732;28;20028;-70
2022/07/17 07:43:23;;;;;;;5.15;1.58;;;18.90;81.60;;;;;;5072861;28;20115;-70
2022/07/17 07:45:50;;;;;;;4.40;1.77;;;18.90;81.20;;;;;;5072782;28;20049;-70
2022/07/17 07:48:16;;;;;;;4.53;1.70;;;18.90;81.60;;;;;;5072680;28;20036;-70
2022/07/17 07:50:42;;;;;;;4.57;1.80;;;19.00;81.70;;;;;;5072388;28;20032;-70
2022/07/17 07:53:08;;;;;;;7.43;1.88;;;19.00;81.90;;;;;;5072539;28;20033;-70
2022/07/17 07:55:34;;;;;;;5.63;1.55;;;19.00;82.00;;;;;;5072366;28;20044;-70
2022/07/17 07:58:08;;;;;;;4.53;1.63;;;19.10;82.60;;;;;;5072188;28;20025;-70
2022/07/17 08:00:34;;;;;;;5.45;1.20;;;19.10;81.60;;;;;;5072251;28;20129;-70
2022/07/17 08:03:00;;;;;;;5.20;1.52;;;19.10;80.70;;;;;;5072244;28;20146;-70
2022/07/17 08:05:26;;;;;;;4.90;1.42;;;19.20;79.70;;;;;;5072407;28;20043;-70
2022/07/17 08:07:53;;;;;;;5.20;1.13;;;19.20;79.60;;;;;;5054416;28;20495;-70
2022/07/17 08:10:18;;;;;;;6.15;1.33;;;19.30;79.10;;;;;;5071822;28;20033;-70
2022/07/17 08:12:44;;;;;;;3.80;1.20;;;19.20;79.00;;;;;;5072103;28;20036;-70
2022/07/17 08:15:11;;;;;;;4.15;1.10;;;19.30;78.80;;;;;;5054202;28;20116;-70
2022/07/17 08:17:37;;;;;;;6.57;1.50;;;19.30;78.90;;;;;;5071943;28;20031;-70
2022/07/17 08:20:04;;;;;;;8.32;1.70;;;19.40;79.20;;;;;;5071762;28;20041;-70
2022/07/17 08:22:30;;;;;;;7.72;1.60;;;19.40;78.90;;;;;;5072082;28;20025;-70
2022/07/17 08:24:56;;;;;;;9.50;3.40;;;19.50;79.20;;;;;;5071901;28;20035;-70
2022/07/17 08:27:22;;;;;;;11.82;3.40;;;19.50;77.80;;;;;;5071969;28;20385;-70
2022/07/17 08:29:48;;;;;;;9.27;3.05;;;19.60;77.50;;;;;;5071697;28;20032;-70
2022/07/17 08:32:14;;;;;;;9.45;3.08;;;19.60;77.10;;;;;;5071909;28;20029;-70
2022/07/17 08:34:39;;;;;;;9.68;2.38;;;19.60;77.40;;;;;;5071925;28;20556;-70
2022/07/17 08:37:05;;;;;;;8.57;2.30;;;19.60;76.60;;;;;;5071781;28;20146;-70
2022/07/17 08:39:31;;;;;;;9.07;3.05;;;19.70;76.80;;;;;;5070841;28;20047;-70
2022/07/17 08:41:57;;;;;;;7.50;2.90;;;19.70;77.00;;;;;;5071765;28;20431;-70
2022/07/17 08:44:23;;;;;;;8.63;3.20;;;19.70;76.50;;;;;;5071781;28;20032;-70
2022/07/17 08:46:50;;;;;;;10.60;3.40;;;19.70;76.60;;;;;;5071577;28;20035;-70
2022/07/17 08:49:21;;;;;;;7.45;3.40;;;19.70;76.70;;;;;;5071896;28;20033;-70
2022/07/17 08:51:48;;;;;;;5.32;2.88;;;19.70;76.90;;;;;;5071338;28;20109;-70
2022/07/17 08:54:14;;;;;;;7.38;2.58;;;19.70;77.40;;;;;;5071904;28;20036;-70
2022/07/17 08:56:40;;;;;;;6.22;2.13;;;19.70;77.40;;;;;;5071488;28;20020;-70
2022/07/17 08:59:06;;;;;;;6.53;2.50;;;19.80;77.60;;;;;;5071318;28;20082;-69
2022/07/17 09:01:32;;;;;;;5.63;2.05;;;19.80;77.50;;;;;;5071587;28;20503;-70
2022/07/17 09:04:05;;;;;;;10.20;2.97;;;19.80;77.80;;;;;;5071421;28;20036;-70
2022/07/17 09:06:31;;;;;;;7.47;2.30;;;19.90;77.60;;;;;;5053605;28;20025;-70
2022/07/17 09:09:11;;;;;;;7.72;2.60;;;19.90;76.70;;;;;;5071507;28;20043;-70
2022/07/17 09:11:47;;;;;;;5.63;2.50;;;19.90;76.70;;;;;;5071970;28;20127;-70
2022/07/17 09:14:14;;;;;;;6.28;1.80;;;19.90;76.90;;;;;;5071799;28;20063;-70
2022/07/17 09:17:01;;;;;;;6.57;2.25;;;20.00;76.90;;;;;;5071547;28;20489;-70
2022/07/17 09:19:35;;;;;;;7.93;2.13;;;20.00;76.50;;;;;;5071374;28;20046;-70
2022/07/17 09:22:06;;;;;;;8.88;2.60;;;20.00;76.70;;;;;;5071563;28;20505;-70
2022/07/17 09:24:42;;;;;;;8.30;2.10;;;20.00;76.90;;;;;;5071513;28;20043;-70
2022/07/17 09:27:08;;;;;;;6.15;2.22;;;20.10;75.80;;;;;;5071338;28;20485;-70
2022/07/17 09:29:34;;;;;;;6.20;2.10;;;20.10;75.50;;;;;;5070954;28;20446;-70
2022/07/17 09:32:00;;;;;;;4.70;2.22;;;20.10;74.80;;;;;;5071090;28;20090;-70
2022/07/17 09:34:26;;;;;;;10.45;3.53;;;20.20;75.00;;;;;;5071314;28;20024;-70
2022/07/17 09:37:00;;;;;;;6.32;2.85;;;20.20;74.90;;;;;;5071574;28;20024;-70
2022/07/17 09:39:39;;;;;;;6.60;2.35;;;20.20;74.90;;;;;;5071293;28;20031;-70
2022/07/17 09:42:06;;;;;;;5.13;2.20;;;20.20;74.20;;;;;;5071079;28;20119;-70
2022/07/17 09:44:32;;;;;;;8.48;2.17;;;20.20;74.50;;;;;;5071236;28;20039;-70
2022/07/17 09:46:57;;;;;;;8.88;2.55;;;20.30;74.60;;;;;;5071277;28;20028;-70
2022/07/17 09:49:27;;;;;;;9.32;2.28;;;20.30;75.20;;;;;;5071295;28;20072;-70
2022/07/17 09:51:54;;;;;;;9.77;3.20;;;20.30;74.80;;;;;;5075445;28;20025;-70
2022/07/17 09:54:23;;;;;;;8.80;2.60;;;20.30;74.80;;;;;;5075397;28;20153;-70
2022/07/17 09:56:58;;;;;;;6.40;2.25;;;20.40;74.90;;;;;;5075222;28;20028;-70
2022/07/17 09:59:29;;;;;;;8.45;2.17;;;20.40;74.80;;;;;;5057138;28;20029;-70
2022/07/17 10:01:55;;;;;;;6.25;2.53;;;20.50;73.90;;;;;;5075405;28;20115;-70
2022/07/17 10:04:22;;;;;;;9.55;2.83;;;20.50;73.60;;;;;;5075419;28;20056;-70
2022/07/17 10:06:48;;;;;;;6.65;2.63;;;20.50;73.80;;;;;;5074947;28;20051;-70
2022/07/17 10:09:14;;;;;;;6.57;2.50;;;20.60;74.00;;;;;;5074865;28;20072;-70
2022/07/17 10:11:41;;;;;;;11.40;3.00;;;20.60;73.60;;;;;;5057118;28;20075;-70
2022/07/17 10:14:13;;;;;;;6.50;2.47;;;20.60;73.10;;;;;;5057388;28;20056;-70
2022/07/17 10:16:40;;;;;;;7.75;2.72;;;20.60;72.80;;;;;;5074918;28;20028;-70
2022/07/17 10:19:23;;;;;;;9.48;2.75;;;20.60;72.50;;;;;;5056952;28;20031;-70
2022/07/17 10:22:00;;;;;;;8.50;2.67;;;20.70;72.30;;;;;;5075180;28;20058;-70
2022/07/17 10:24:29;;;;;;;5.53;2.13;;;20.70;72.40;;;;;;5057175;28;20062;-69
2022/07/17 10:26:55;;;;;;;;;;;20.80;72.60;;;;;;5075091;28;20127;-70
2022/07/17 10:29:34;;;;;;;5.15;2.28;;;20.70;72.40;;;;;;5074694;28;19908;-70
2022/07/17 10:32:22;;;;;;;6.32;2.30;;;20.70;72.00;;;;;;5074537;28;20078;-70
2022/07/17 10:34:53;;;;;;;5.68;2.28;;;20.70;72.40;;;;;;5056402;28;20036;-69
2022/07/17 10:37:22;;;;;;;8.63;2.88;;;20.70;71.80;;;;;;5074573;28;20083;-69
2022/07/17 10:40:15;;;;;;;6.97;2.67;;;20.80;70.80;;;;;;5074252;28;20553;-70
2022/07/17 10:42:47;;;;;;;8.07;2.40;;;20.80;71.00;;;;;;5074521;28;20025;-70
2022/07/17 10:45:27;;;;;;;9.15;2.53;;;20.90;71.10;;;;;;5074654;28;20107;-70
2022/07/17 10:47:59;;;;;;;7.40;2.38;;;20.90;70.70;;;;;;5074305;28;20517;-70
2022/07/17 10:50:35;;;;;;;10.52;2.60;;;21.00;70.90;;;;;;5074154;28;20028;-70
2022/07/17 10:53:02;;;;;;;9.35;2.53;;;21.10;70.60;;;;;;5074282;28;20031;-70
2022/07/17 10:55:29;;;;;;;8.55;2.72;;;21.10;71.10;;;;;;5074392;28;20489;-70
2022/07/17 10:57:56;;;;;;;10.23;2.72;;;21.10;70.70;;;;;;5073994;28;20085;-70
2022/07/17 11:00:23;;;;;;;6.93;2.45;;;21.20;70.70;;;;;;5073860;28;20028;-70
2022/07/17 11:02:48;;;;;;;10.43;2.72;;;21.20;70.60;;;;;;5073425;28;20120;-70
2022/07/17 11:05:16;;;;;;;7.35;2.72;;;21.30;70.80;;;;;;5055917;28;20111;-70
2022/07/17 11:07:49;;;;;;;9.43;2.50;;;21.20;70.30;;;;;;5055922;28;20029;-70
2022/07/17 11:10:16;;;;;;;5.35;2.17;;;21.30;69.70;;;;;;5073509;28;20115;-70
2022/07/17 11:12:42;;;;;;;8.05;2.50;;;21.30;69.50;;;;;;5073886;28;20093;-70
2022/07/17 11:15:08;;;;;;;9.73;2.47;;;21.30;69.60;;;;;;5073906;28;20029;-70
2022/07/17 11:17:34;;;;;;;7.63;2.53;;;21.40;69.40;;;;;;5055366;28;20033;-70
2022/07/17 11:20:02;;;;;;;7.22;2.22;;;21.40;69.00;;;;;;5073125;28;20060;-70
2022/07/17 11:22:28;;;;;;;10.02;2.20;;;21.40;69.40;;;;;;5073583;28;20031;-70
2022/07/17 11:24:54;;;;;;;7.38;2.50;;;21.50;68.50;;;;;;5073352;28;20115;-70
2022/07/17 11:27:23;;;;;;;7.68;2.30;;;21.60;67.80;;;;;;5073305;28;20029;-70
2022/07/17 11:29:51;;;;;;;6.30;2.67;;;21.60;66.90;;;;;;5055468;28;20522;-70
2022/07/17 11:32:17;;;;;;;11.40;3.63;;;21.60;65.80;;;;;;5055477;28;20503;-70
2022/07/17 11:34:43;;;;;;;6.78;3.00;;;21.60;66.20;;;;;;5073560;28;20028;-70
2022/07/17 11:37:23;;;;;;;7.20;2.63;;;21.60;66.60;;;;;;5073243;28;20020;-71
2022/07/17 11:40:09;;;;;;;9.27;2.03;;;21.60;67.00;;;;;;5055955;28;20046;-72
2022/07/17 11:42:35;;;;;;;4.82;1.98;;;21.70;68.10;;;;;;5073061;28;20374;-70
2022/07/17 11:45:01;;;;;;;8.10;2.58;;;21.70;68.40;;;;;;5073293;28;20043;-70
2022/07/17 11:47:27;;;;;;;8.82;2.70;;;21.70;68.40;;;;;;5073072;28;20067;-70
2022/07/17 11:50:09;;;;;;;8.73;2.20;;;21.80;67.00;;;;;;5072692;28;20060;-71
2022/07/17 11:52:44;;;;;;;8.00;2.70;;;21.80;66.10;;;;;;5072902;28;20171;-71
2022/07/17 11:55:11;;;;;;;5.85;2.28;;;21.90;66.30;;;;;;5073044;28;20028;-71
2022/07/17 11:58:03;;;;;;;6.63;2.17;;;21.90;66.50;;;;;;5072862;28;20028;-71
2022/07/17 12:00:29;;;;;;;9.45;3.00;;;21.90;67.00;;;;;;5069078;28;20396;-70
2022/07/17 12:05:50;;;;;;;9.10;2.97;;;22.10;66.00;;;;;;5030997;28;20049;-73
2022/07/17 12:08:22;;;;;;;9.00;3.00;;;22.20;65.10;;;;;;5032990;28;20056;-72
2022/07/17 12:11:04;;;;;;;8.77;3.40;;;22.20;65.10;;;;;;5033303;28;20092;-71
2022/07/17 12:14:35;;;;;;;9.68;2.55;;;22.20;65.20;;;;;;5046966;28;20490;-73
2022/07/17 12:16:57;;;;;;;7.45;3.15;;;22.30;64.80;;;;;;5030989;28;20125;-71
2022/07/17 12:19:25;;;;;;;7.00;2.95;;;22.30;64.70;;;;;;5032128;28;20025;-71
2022/07/17 12:21:54;;;;;;;7.32;2.67;;;22.30;64.30;;;;;;5032251;28;20036;-71
2022/07/17 12:24:44;;;;;;;9.00;2.70;;;22.30;64.30;;;;;;5032170;28;20037;-71
2022/07/17 12:27:12;;;;;;;7.32;2.40;;;22.40;64.50;;;;;;5047347;28;20382;-72
2022/07/17 12:29:39;;;;;;;8.35;2.50;;;22.50;65.70;;;;;;5031858;28;20471;-72
2022/07/17 12:32:12;;;;;;;9.00;2.80;;;22.60;65.60;;;;;;5031971;28;20029;-72
2022/07/17 12:34:46;;;;;;;7.15;2.72;;;22.70;65.90;;;;;;5047544;28;20037;-73
2022/07/17 12:37:13;;;;;;;7.72;2.45;;;22.70;66.20;;;;;;5031956;28;20033;-72
2022/07/17 12:39:39;;;;;;;10.63;2.65;;;22.90;64.90;;;;;;5031606;28;20398;-72
2022/07/17 12:42:05;;;;;;;9.13;3.13;;;23.10;63.40;;;;;;5031759;28;20029;-72
2022/07/17 12:44:31;;;;;;;9.68;2.88;;;23.10;63.00;;;;;;5031751;28;20033;-72
2022/07/17 12:46:57;;;;;;;7.68;2.78;;;23.20;63.00;;;;;;5031655;28;20056;-72
2022/07/17 12:49:25;;;;;;;8.35;2.80;;;23.30;62.90;;;;;;5031483;28;20657;-73
2022/07/17 12:51:51;;;;;;;10.68;3.05;;;23.40;61.80;;;;;;5046974;28;20647;-72